• Join FlightAware (Why Join?)
  • Login
  • US Flag 
11:55PM EDT


 

Airport Tracker/Info


-or-


 

Live Flight TrackerFlight Track Log ✈ EJM685 ✈ 29-Sep-2013 ✈ KBNA - KTEB

Flight Track Log - Related Links

Times and Time Zones

All times are in EDT time to prevent confusion due to time zone crossing. See the EJM685 flight status page for this flight to view local times or setup timezone preferences in your user account.

Time Position Orientation Groundspeed Altitude Reporting Facility
EDT Latitude Longitude Course Direction KTS MPH feet Rate Location/Type
08:01PM 36.1000 -86.6833 173° South 167 192 1,600  Level Nashville TRACON
08:02PM 36.0739 -86.6794 173° South 216 249 2,600 1,200 Climbing Memphis Center
08:03PM 36.0822 -86.6078 82° East 228 262 3,600 2,220 Climbing Memphis Center
08:04PM 36.1067 -86.5203 71° East 263 303 7,200 3,480 Climbing Memphis Center
08:05PM 36.1336 -86.4292 70° East 278 320 10,900 2,880 Climbing Memphis Center
08:06PM 36.1725 -86.3031 69° East 341 392 13,200 2,160 Climbing Memphis Center
08:07PM 36.2075 -86.1794 71° East 372 428 15,400 2,400 Climbing Memphis Center
08:08PM 36.2456 -86.0508 70° East 391 450 18,200 2,340 Climbing Memphis Center
08:09PM 36.2861 -85.9178 69° East 408 470 20,200 2,160 Climbing Memphis Center
08:10PM 36.3256 -85.7853 70° East 433 498 22,700 2,340 Climbing Indianapolis Center
08:11PM 36.3908 -85.6514 59° Northeast 450 518 25,000 2,400 Climbing Indianapolis Center
08:12PM 36.4706 -85.4847 59° Northeast 464 534 27,700 1,920 Climbing Indianapolis Center
08:13PM 36.5381 -85.3400 60° Northeast 480 552 29,000 1,200 Climbing Indianapolis Center
08:14PM 36.6081 -85.1892 60° Northeast 498 573 30,300 1,620 Climbing Indianapolis Center
08:15PM 36.6808 -85.0358 59° Northeast 511 588 32,400 1,260 Climbing Indianapolis Center
08:16PM 36.7500 -84.8811 61° Northeast 511 588 33,000 1,260 Climbing Indianapolis Center
08:17PM 36.8186 -84.7256 61° Northeast 509 586 35,100 1,980 Climbing Indianapolis Center
08:18PM 36.8839 -84.5667 63° Northeast 511 588 37,100 2,220 Climbing Indianapolis Center
08:19PM 36.9500 -84.3981 64° Northeast 510 587 39,700 1,860 Climbing Indianapolis Center
08:20PM 37.0003 -84.2386 68° East 498 573 41,000 600 Climbing Indianapolis Center
08:22PM 37.0442 -84.0681 72° East 509 586 41,000  Level Indianapolis Center
08:23PM 37.0908 -83.8956 71° East 519 597 41,000  Level Indianapolis Center
08:24PM 37.1431 -83.6981 72° East 512 589 41,000  Level Indianapolis Center
08:25PM 37.1864 -83.5286 72° East 509 586 41,000  Level Indianapolis Center
08:26PM 37.2311 -83.3556 72° East 516 594 41,000  Level Indianapolis Center
08:27PM 37.2753 -83.1850 72° East 510 587 41,000  Level Indianapolis Center
08:28PM 37.3186 -83.0158 72° East 506 582 41,000  Level Indianapolis Center
08:29PM 37.3611 -82.8472 72° East 502 578 41,000  Level Indianapolis Center
08:30PM 37.4042 -82.6797 72° East 500 575 41,000  Level Indianapolis Center
08:31PM 37.4458 -82.5133 72° East 497 572 41,000  Level Indianapolis Center
08:32PM 37.4947 -82.3167 73° East 502 578 41,000  Level Indianapolis Center
08:33PM 37.5356 -82.1508 73° East 498 573 41,000  Level Indianapolis Center
08:34PM 37.5769 -81.9825 73° East 500 575 41,000  Level Indianapolis Center
08:35PM 37.6172 -81.8161 73° East 496 571 41,000  Level Indianapolis Center
08:36PM 37.6572 -81.6472 73° East 502 578 41,000  Level Indianapolis Center
08:37PM 37.7011 -81.4619 73° East 494 568 41,000  Level Indianapolis Center
08:38PM 37.7397 -81.3006 73° East 494 568 41,000  Level Indianapolis Center
08:39PM 37.7772 -81.1356 74° East 500 575 41,000  Level Indianapolis Center
08:40PM 37.7925 -80.9661 83° East 505 581 41,000  Level Indianapolis Center
08:41PM 37.8039 -80.7639 86° East 495 570 41,000  Level Indianapolis Center
08:42PM 37.8139 -80.6172 85° East 496 571 41,000  Level Indianapolis Center
08:43PM 37.8261 -80.4267 85° East 493 567 41,000  Level Indianapolis Center
08:44PM 37.8367 -80.2597 85° East 490 564 41,000  Level Indianapolis Center
08:45PM 37.8489 -80.0578 86° East 491 565 41,000  Level Indianapolis Center
08:46PM 37.8581 -79.8897 86° East 491 565 41,000  Level Indianapolis Center
08:47PM 37.8683 -79.7194 86° East 495 570 41,000  Level Indianapolis Center
08:48PM 37.8781 -79.5489 86° East 494 568 41,000  Level Indianapolis Center
08:49PM 37.8939 -79.3364 85° East 494 568 41,000  Level Washington Center
08:50PM 37.9006 -79.1839 87° East 494 568 41,000  Level Washington Center
08:51PM 37.9158 -79.0164 83° East 494 568 41,000  Level Washington Center
08:52PM 37.9372 -78.8436 81° East 489 563 41,000  Level Washington Center
08:53PM 37.9564 -78.6758 82° East 489 563 41,000  Level Washington Center
08:54PM 37.9778 -78.4842 82° East 489 563 41,000  Level Washington Center
08:55PM 37.9986 -78.3139 81° East 489 563 41,000  Level Washington Center
08:56PM 38.0164 -78.1589 82° East 495 570 41,000  Level Washington Center
08:57PM 38.0822 -78.0056 61° Northeast 452 520 41,000 -360 Level Washington Center
08:58PM 38.1539 -77.8681 56° Northeast 457 526 40,400 -840 Descending Washington Center
08:59PM 38.2253 -77.7272 57° Northeast 468 539 39,400 -1,140 Descending Washington Center
09:00PM 38.2900 -77.5969 58° Northeast 473 544 38,200 -1,860 Descending Washington Center
09:01PM 38.3589 -77.4558 58° Northeast 473 544 35,700 -2,040 Descending Washington Center
09:02PM 38.4278 -77.3144 58° Northeast 468 539 34,200 -960 Descending Washington Center
09:03PM 38.5006 -77.1703 57° Northeast 474 545 33,900 -900 Descending Washington Center
09:04PM 38.5692 -77.0283 58° Northeast 474 545 32,500 -1,440 Descending Washington Center
09:05PM 38.6375 -76.8833 59° Northeast 468 539 31,000 -1,260 Descending Washington Center
09:06PM 38.7078 -76.7489 56° Northeast 463 533 30,000 -540 Descending Washington Center
09:07PM 38.7983 -76.6358 44° Northeast 451 519 30,000 -720 Level Washington Center
09:08PM 38.8889 -76.5331 41° Northeast 439 505 28,600 -1,380 Descending Washington Center
09:09PM 38.9856 -76.4142 44° Northeast 434 499 27,300 -1,680 Descending Washington Center
09:10PM 39.0694 -76.3242 40° Northeast 428 493 25,300 -1,680 Descending Washington Center
09:11PM 39.1578 -76.2206 42° Northeast 428 493 24,000 -660 Descending Washington Center
09:12PM 39.2519 -76.1142 41° Northeast 428 493 24,000 -1,260 Level Washington Center
09:15PM 39.4667 -75.9000 38° Northeast 407 468 20,100 -1,920 Descending Philadelphia TRACON
09:16PM 39.5667 -75.8167 33° Northeast 390 449 17,800 -2,040 Descending Philadelphia TRACON
09:17PM 39.6500 -75.7333 38° Northeast 377 434 16,100 -1,920 Descending Philadelphia TRACON
09:18PM 39.7333 -75.6667 32° Northeast 367 422 14,200 -1,560 Descending Philadelphia TRACON
09:19PM 39.8000 -75.5833 44° Northeast 362 417 13,000 -600 Descending Philadelphia TRACON
09:20PM 39.8833 -75.5167 32° Northeast 358 412 13,000  Level Philadelphia TRACON
09:21PM 39.9833 -75.4333 33° Northeast 358 412 13,000  Level Philadelphia TRACON
09:22PM 40.0667 -75.3500 37° Northeast 359 413 13,000  Level Philadelphia TRACON
09:23PM 40.1333 -75.2833 37° Northeast 303 349 13,000 -720 Level Philadelphia TRACON
09:24PM 40.2500 -75.1833 33° Northeast 296 341 11,200 -1,320 Descending New York TRACON
09:25PM 40.3167 -75.1167 37° Northeast 295 339 9,600 -1,620 Descending New York TRACON
09:26PM 40.3667 -75.0500 45° Northeast 288 331 8,000 -1,320 Descending New York TRACON
09:27PM 40.4167 -74.9833 45° Northeast 281 323 7,000 -600 Descending New York TRACON
09:28PM 40.5000 -74.9000 37° Northeast 283 326 6,800 -600 Descending New York TRACON
09:29PM 40.5500 -74.8500 37° Northeast 282 325 5,900 -1,020 Descending New York TRACON
09:30PM 40.6000 -74.8000 37° Northeast 266 306 4,900 -960 Descending New York TRACON
09:31PM 40.6667 -74.7333 37° Northeast 261 300 4,100 -660 Descending New York TRACON
09:32PM 40.7167 -74.6833 37° Northeast 258 297 3,700 -480 Descending New York TRACON
09:33PM 40.7833 -74.6167 37° Northeast 263 303 3,200 -300 Descending New York TRACON
09:34PM 40.8167 -74.5500 57° Northeast 263 303 3,100 -60 Descending New York TRACON
09:35PM 40.8500 -74.4667 62° Northeast 261 300 3,100 -60 Level New York TRACON
09:36PM 40.9000 -74.3833 52° Northeast 262 302 3,000  Descending New York TRACON
09:37PM 40.9167 -74.3000 75° East 264 304 3,100 -60 Climbing New York TRACON
09:38PM 40.9500 -74.2167 62° Northeast 239 275 2,900 -480 Descending New York TRACON
09:39PM 40.9833 -74.1500 56° Northeast 205 236 2,100 -480 Descending New York TRACON
09:40PM 41.0000 -74.0833 72° East 185 213 2,000 -60 Descending New York TRACON
09:41PM 40.9667 -74.0500 143° Southeast 155 178 2,000 -300 Level New York TRACON
09:42PM 40.9167 -74.0500 180° South 151 174 1,400 -660 Descending New York TRACON
09:43PM 40.8833 -74.0500 180° South 130 150 700 -720 Descending New York TRACON
09:45PM 40.8500 -74.0500 90° East  Level FlightAware Approximate
09:52PM 40.8501 -74.0608 90° East  Level Estimated
09:53PM 40.8501 -74.0608 90° East  Level Estimated
09:54PM 40.8501 -74.0608 90° East  Level Estimated
09:55PM 40.8501 -74.0608 90° East  Level Estimated
09:56PM 40.8501 -74.0608 90° East  Level Estimated
09:57PM 40.8501 -74.0608 90° East  Level Estimated